sensor_id;sensor_type;location;lat;lon;timestamp;temperature;humidity
71668;DHT22;59504;54.806;9.640;2023-01-31T00:00:30;3.00;71.50
71668;DHT22;59504;54.806;9.640;2023-01-31T00:02:49;3.00;71.60
71668;DHT22;59504;54.806;9.640;2023-01-31T00:05:08;3.00;71.70
71668;DHT22;59504;54.806;9.640;2023-01-31T00:07:27;3.00;71.90
71668;DHT22;59504;54.806;9.640;2023-01-31T00:09:46;3.00;72.00
71668;DHT22;59504;54.806;9.640;2023-01-31T00:12:06;3.00;72.30
71668;DHT22;59504;54.806;9.640;2023-01-31T00:14:25;3.00;72.30
71668;DHT22;59504;54.806;9.640;2023-01-31T00:16:44;3.00;72.40
71668;DHT22;59504;54.806;9.640;2023-01-31T00:19:03;3.00;72.60
71668;DHT22;59504;54.806;9.640;2023-01-31T00:21:27;3.00;72.80
71668;DHT22;59504;54.806;9.640;2023-01-31T00:23:47;3.00;72.90
71668;DHT22;59504;54.806;9.640;2023-01-31T00:26:15;3.00;72.90
71668;DHT22;59504;54.806;9.640;2023-01-31T00:28:34;3.10;72.90
71668;DHT22;59504;54.806;9.640;2023-01-31T00:30:35;3.20;72.90
71668;DHT22;59504;54.806;9.640;2023-01-31T00:32:36;3.10;72.70
71668;DHT22;59504;54.806;9.640;2023-01-31T00:34:37;3.00;72.50
71668;DHT22;59504;54.806;9.640;2023-01-31T00:36:37;3.10;72.50
71668;DHT22;59504;54.806;9.640;2023-01-31T00:38:38;3.10;72.50
71668;DHT22;59504;54.806;9.640;2023-01-31T00:40:39;3.10;72.40
71668;DHT22;59504;54.806;9.640;2023-01-31T00:42:39;3.10;72.30
71668;DHT22;59504;54.806;9.640;2023-01-31T00:44:40;3.10;72.20
71668;DHT22;59504;54.806;9.640;2023-01-31T00:46:41;3.10;72.20
71668;DHT22;59504;54.806;9.640;2023-01-31T00:48:42;3.20;72.30
71668;DHT22;59504;54.806;9.640;2023-01-31T00:50:43;3.10;72.10
71668;DHT22;59504;54.806;9.640;2023-01-31T00:52:43;3.10;72.10
71668;DHT22;59504;54.806;9.640;2023-01-31T00:54:44;3.10;72.10
71668;DHT22;59504;54.806;9.640;2023-01-31T00:56:45;3.10;72.10
71668;DHT22;59504;54.806;9.640;2023-01-31T00:58:45;3.10;72.10
71668;DHT22;59504;54.806;9.640;2023-01-31T01:00:46;3.10;72.80
71668;DHT22;59504;54.806;9.640;2023-01-31T01:02:47;3.10;72.20
71668;DHT22;59504;54.806;9.640;2023-01-31T01:04:47;3.10;72.30
71668;DHT22;59504;54.806;9.640;2023-01-31T01:06:48;3.10;72.30
71668;DHT22;59504;54.806;9.640;2023-01-31T01:09:09;3.10;72.30
71668;DHT22;59504;54.806;9.640;2023-01-31T01:11:30;3.10;72.30
71668;DHT22;59504;54.806;9.640;2023-01-31T01:13:51;3.10;72.20
71668;DHT22;59504;54.806;9.640;2023-01-31T01:16:15;3.00;72.20
71668;DHT22;59504;54.806;9.640;2023-01-31T01:18:36;3.10;72.30
71668;DHT22;59504;54.806;9.640;2023-01-31T01:21:13;3.00;72.20
71668;DHT22;59504;54.806;9.640;2023-01-31T01:23:34;3.00;72.20
71668;DHT22;59504;54.806;9.640;2023-01-31T01:25:55;3.00;72.20
71668;DHT22;59504;54.806;9.640;2023-01-31T01:28:16;3.00;72.20
71668;DHT22;59504;54.806;9.640;2023-01-31T01:30:37;3.00;72.20
71668;DHT22;59504;54.806;9.640;2023-01-31T01:32:58;3.00;72.20
71668;DHT22;59504;54.806;9.640;2023-01-31T01:35:19;3.00;72.20
71668;DHT22;59504;54.806;9.640;2023-01-31T01:37:40;3.10;72.20
71668;DHT22;59504;54.806;9.640;2023-01-31T01:40:00;3.00;72.00
71668;DHT22;59504;54.806;9.640;2023-01-31T01:42:01;3.00;71.90
71668;DHT22;59504;54.806;9.640;2023-01-31T01:44:46;3.20;72.10
71668;DHT22;59504;54.806;9.640;2023-01-31T01:50:00;3.10;71.60
71668;DHT22;59504;54.806;9.640;2023-01-31T01:52:06;3.10;71.30
71668;DHT22;59504;54.806;9.640;2023-01-31T01:54:14;3.20;71.20
71668;DHT22;59504;54.806;9.640;2023-01-31T01:56:20;3.10;70.90
71668;DHT22;59504;54.806;9.640;2023-01-31T01:58:27;3.20;70.80
71668;DHT22;59504;54.806;9.640;2023-01-31T02:00:32;3.20;70.70
71668;DHT22;59504;54.806;9.640;2023-01-31T02:02:33;3.10;70.50
71668;DHT22;59504;54.806;9.640;2023-01-31T02:04:37;3.20;70.60
71668;DHT22;59504;54.806;9.640;2023-01-31T02:06:39;3.20;70.40
71668;DHT22;59504;54.806;9.640;2023-01-31T02:08:41;3.10;70.20
71668;DHT22;59504;54.806;9.640;2023-01-31T02:13:01;3.20;70.40
71668;DHT22;59504;54.806;9.640;2023-01-31T02:15:02;3.20;70.30
71668;DHT22;59504;54.806;9.640;2023-01-31T02:17:03;3.20;70.40
71668;DHT22;59504;54.806;9.640;2023-01-31T02:19:16;3.20;70.50
71668;DHT22;59504;54.806;9.640;2023-01-31T02:39:52;3.40;71.10
71668;DHT22;59504;54.806;9.640;2023-01-31T02:42:23;3.40;70.40
71668;DHT22;59504;54.806;9.640;2023-01-31T02:47:29;3.40;70.40
71668;DHT22;59504;54.806;9.640;2023-01-31T02:49:34;3.60;70.60
71668;DHT22;59504;54.806;9.640;2023-01-31T02:51:41;3.50;70.60
71668;DHT22;59504;54.806;9.640;2023-01-31T02:54:18;3.50;70.80
71668;DHT22;59504;54.806;9.640;2023-01-31T02:56:28;3.50;70.90
71668;DHT22;59504;54.806;9.640;2023-01-31T02:58:33;3.50;71.20
71668;DHT22;59504;54.806;9.640;2023-01-31T03:00:38;3.50;71.50
71668;DHT22;59504;54.806;9.640;2023-01-31T03:02:40;3.50;71.90
71668;DHT22;59504;54.806;9.640;2023-01-31T03:04:41;3.50;72.10
71668;DHT22;59504;54.806;9.640;2023-01-31T03:06:49;3.50;72.20
71668;DHT22;59504;54.806;9.640;2023-01-31T03:11:08;3.60;72.30
71668;DHT22;59504;54.806;9.640;2023-01-31T03:15:49;3.60;72.20
71668;DHT22;59504;54.806;9.640;2023-01-31T03:18:16;3.60;72.10
71668;DHT22;59504;54.806;9.640;2023-01-31T03:20:47;3.60;72.10
71668;DHT22;59504;54.806;9.640;2023-01-31T03:22:45;3.70;72.10
71668;DHT22;59504;54.806;9.640;2023-01-31T03:24:49;3.70;72.00
71668;DHT22;59504;54.806;9.640;2023-01-31T03:26:53;3.70;72.00
71668;DHT22;59504;54.806;9.640;2023-01-31T03:28:55;3.70;72.10
71668;DHT22;59504;54.806;9.640;2023-01-31T03:31:09;3.70;72.00
71668;DHT22;59504;54.806;9.640;2023-01-31T03:33:23;3.70;71.90
71668;DHT22;59504;54.806;9.640;2023-01-31T03:35:28;3.80;71.90
71668;DHT22;59504;54.806;9.640;2023-01-31T03:37:43;3.80;71.90
71668;DHT22;59504;54.806;9.640;2023-01-31T03:42:36;3.80;71.90
71668;DHT22;59504;54.806;9.640;2023-01-31T03:44:59;3.80;71.90
71668;DHT22;59504;54.806;9.640;2023-01-31T03:47:18;3.80;71.80
71668;DHT22;59504;54.806;9.640;2023-01-31T03:49:23;3.80;71.80
71668;DHT22;59504;54.806;9.640;2023-01-31T03:51:30;3.80;71.90
71668;DHT22;59504;54.806;9.640;2023-01-31T03:53:41;3.80;71.90
71668;DHT22;59504;54.806;9.640;2023-01-31T03:55:51;3.80;71.80
71668;DHT22;59504;54.806;9.640;2023-01-31T03:57:54;3.80;71.80
71668;DHT22;59504;54.806;9.640;2023-01-31T03:59:57;3.80;71.80
71668;DHT22;59504;54.806;9.640;2023-01-31T04:02:00;3.80;71.80
71668;DHT22;59504;54.806;9.640;2023-01-31T04:04:07;3.80;71.70
71668;DHT22;59504;54.806;9.640;2023-01-31T04:06:09;3.80;71.60
71668;DHT22;59504;54.806;9.640;2023-01-31T04:08:11;3.80;71.60
71668;DHT22;59504;54.806;9.640;2023-01-31T04:10:17;3.80;71.60
71668;DHT22;59504;54.806;9.640;2023-01-31T04:12:18;3.80;71.50
71668;DHT22;59504;54.806;9.640;2023-01-31T04:14:19;3.70;71.50
71668;DHT22;59504;54.806;9.640;2023-01-31T04:16:20;3.80;71.50
71668;DHT22;59504;54.806;9.640;2023-01-31T04:18:27;3.80;71.50
71668;DHT22;59504;54.806;9.640;2023-01-31T04:20:48;3.80;71.50
71668;DHT22;59504;54.806;9.640;2023-01-31T04:22:49;3.80;71.50
71668;DHT22;59504;54.806;9.640;2023-01-31T04:25:09;3.80;71.60
71668;DHT22;59504;54.806;9.640;2023-01-31T04:27:30;3.80;71.60
71668;DHT22;59504;54.806;9.640;2023-01-31T04:29:51;3.80;71.60
71668;DHT22;59504;54.806;9.640;2023-01-31T04:32:11;3.70;71.60
71668;DHT22;59504;54.806;9.640;2023-01-31T04:34:32;3.70;71.60
71668;DHT22;59504;54.806;9.640;2023-01-31T04:36:53;3.70;71.70
71668;DHT22;59504;54.806;9.640;2023-01-31T04:39:13;3.70;71.80
71668;DHT22;59504;54.806;9.640;2023-01-31T04:41:35;3.70;71.80
71668;DHT22;59504;54.806;9.640;2023-01-31T04:43:55;3.80;72.00
71668;DHT22;59504;54.806;9.640;2023-01-31T04:46:17;3.70;72.00
71668;DHT22;59504;54.806;9.640;2023-01-31T04:48:38;3.70;72.20
71668;DHT22;59504;54.806;9.640;2023-01-31T04:51:00;3.70;72.30
71668;DHT22;59504;54.806;9.640;2023-01-31T04:53:21;3.70;72.40
71668;DHT22;59504;54.806;9.640;2023-01-31T04:55:41;3.70;72.50
71668;DHT22;59504;54.806;9.640;2023-01-31T04:58:02;3.70;72.50
71668;DHT22;59504;54.806;9.640;2023-01-31T05:00:23;3.80;72.70
71668;DHT22;59504;54.806;9.640;2023-01-31T05:02:44;3.70;72.70
71668;DHT22;59504;54.806;9.640;2023-01-31T05:05:05;3.70;72.80
71668;DHT22;59504;54.806;9.640;2023-01-31T05:07:26;3.70;72.90
71668;DHT22;59504;54.806;9.640;2023-01-31T05:09:47;3.80;73.00
71668;DHT22;59504;54.806;9.640;2023-01-31T05:12:07;3.80;73.00
71668;DHT22;59504;54.806;9.640;2023-01-31T05:14:28;3.70;72.90
71668;DHT22;59504;54.806;9.640;2023-01-31T05:16:49;3.70;73.00
71668;DHT22;59504;54.806;9.640;2023-01-31T05:19:09;3.80;73.10
71668;DHT22;59504;54.806;9.640;2023-01-31T05:21:30;3.80;73.20
71668;DHT22;59504;54.806;9.640;2023-01-31T05:24:11;3.80;73.20
71668;DHT22;59504;54.806;9.640;2023-01-31T05:26:31;3.80;73.10
71668;DHT22;59504;54.806;9.640;2023-01-31T05:28:52;3.80;73.30
71668;DHT22;59504;54.806;9.640;2023-01-31T05:31:12;3.80;73.30
71668;DHT22;59504;54.806;9.640;2023-01-31T05:33:34;3.80;73.30
71668;DHT22;59504;54.806;9.640;2023-01-31T05:35:54;3.80;73.40
71668;DHT22;59504;54.806;9.640;2023-01-31T05:38:15;3.80;73.50
71668;DHT22;59504;54.806;9.640;2023-01-31T05:40:35;3.80;73.50
71668;DHT22;59504;54.806;9.640;2023-01-31T05:42:57;3.80;73.80
71668;DHT22;59504;54.806;9.640;2023-01-31T05:45:21;3.80;73.90
71668;DHT22;59504;54.806;9.640;2023-01-31T05:47:41;3.80;73.70
71668;DHT22;59504;54.806;9.640;2023-01-31T05:50:00;3.90;73.90
71668;DHT22;59504;54.806;9.640;2023-01-31T05:52:19;3.80;74.00
71668;DHT22;59504;54.806;9.640;2023-01-31T05:54:38;3.80;74.30
71668;DHT22;59504;54.806;9.640;2023-01-31T05:56:57;3.90;74.40
71668;DHT22;59504;54.806;9.640;2023-01-31T05:59:16;3.90;74.50
71668;DHT22;59504;54.806;9.640;2023-01-31T06:01:35;3.90;74.60
71668;DHT22;59504;54.806;9.640;2023-01-31T06:03:54;3.90;74.70
71668;DHT22;59504;54.806;9.640;2023-01-31T06:06:13;3.90;74.70
71668;DHT22;59504;54.806;9.640;2023-01-31T06:08:33;3.90;74.90
71668;DHT22;59504;54.806;9.640;2023-01-31T06:10:52;3.90;75.00
71668;DHT22;59504;54.806;9.640;2023-01-31T06:13:11;3.90;75.20
71668;DHT22;59504;54.806;9.640;2023-01-31T06:15:30;4.10;75.20
71668;DHT22;59504;54.806;9.640;2023-01-31T06:17:49;4.00;75.30
71668;DHT22;59504;54.806;9.640;2023-01-31T06:20:09;4.00;75.20
71668;DHT22;59504;54.806;9.640;2023-01-31T06:22:28;4.00;75.30
71668;DHT22;59504;54.806;9.640;2023-01-31T06:24:47;4.00;75.40
71668;DHT22;59504;54.806;9.640;2023-01-31T06:27:06;4.00;75.30
71668;DHT22;59504;54.806;9.640;2023-01-31T06:29:25;4.00;75.60
71668;DHT22;59504;54.806;9.640;2023-01-31T06:31:44;4.10;76.40
71668;DHT22;59504;54.806;9.640;2023-01-31T06:34:03;4.10;75.80
71668;DHT22;59504;54.806;9.640;2023-01-31T06:36:22;4.10;75.70
71668;DHT22;59504;54.806;9.640;2023-01-31T06:38:42;4.10;75.90
71668;DHT22;59504;54.806;9.640;2023-01-31T06:41:01;4.10;76.10
71668;DHT22;59504;54.806;9.640;2023-01-31T06:43:20;4.20;76.50
71668;DHT22;59504;54.806;9.640;2023-01-31T06:45:41;4.20;76.40
71668;DHT22;59504;54.806;9.640;2023-01-31T06:48:01;4.20;76.20
71668;DHT22;59504;54.806;9.640;2023-01-31T06:50:20;4.20;76.50
71668;DHT22;59504;54.806;9.640;2023-01-31T06:52:39;4.30;76.40
71668;DHT22;59504;54.806;9.640;2023-01-31T06:54:59;4.30;76.40
71668;DHT22;59504;54.806;9.640;2023-01-31T06:57:18;4.30;76.60
71668;DHT22;59504;54.806;9.640;2023-01-31T06:59:37;4.30;76.90
71668;DHT22;59504;54.806;9.640;2023-01-31T07:01:56;4.50;76.90
71668;DHT22;59504;54.806;9.640;2023-01-31T07:04:15;4.40;77.10
71668;DHT22;59504;54.806;9.640;2023-01-31T07:06:34;4.40;77.00
71668;DHT22;59504;54.806;9.640;2023-01-31T07:08:53;4.40;77.00
71668;DHT22;59504;54.806;9.640;2023-01-31T07:11:12;4.50;77.00
71668;DHT22;59504;54.806;9.640;2023-01-31T07:13:32;4.50;77.00
71668;DHT22;59504;54.806;9.640;2023-01-31T07:15:51;4.50;77.00
71668;DHT22;59504;54.806;9.640;2023-01-31T07:18:10;4.50;77.10
71668;DHT22;59504;54.806;9.640;2023-01-31T07:20:30;4.50;77.20
71668;DHT22;59504;54.806;9.640;2023-01-31T07:22:56;4.60;77.00
71668;DHT22;59504;54.806;9.640;2023-01-31T07:25:15;4.60;77.10
71668;DHT22;59504;54.806;9.640;2023-01-31T07:27:34;4.60;77.30
71668;DHT22;59504;54.806;9.640;2023-01-31T07:29:53;4.60;77.30
71668;DHT22;59504;54.806;9.640;2023-01-31T07:32:12;4.60;77.30
71668;DHT22;59504;54.806;9.640;2023-01-31T07:34:31;4.70;77.40
71668;DHT22;59504;54.806;9.640;2023-01-31T07:36:51;4.70;77.30
71668;DHT22;59504;54.806;9.640;2023-01-31T07:39:10;4.70;77.20
71668;DHT22;59504;54.806;9.640;2023-01-31T07:41:29;4.70;77.30
71668;DHT22;59504;54.806;9.640;2023-01-31T07:43:48;4.70;77.60
71668;DHT22;59504;54.806;9.640;2023-01-31T07:46:07;4.70;77.50
71668;DHT22;59504;54.806;9.640;2023-01-31T07:48:27;4.80;77.60
71668;DHT22;59504;54.806;9.640;2023-01-31T07:50:47;4.80;77.60
71668;DHT22;59504;54.806;9.640;2023-01-31T07:53:06;4.80;77.70
71668;DHT22;59504;54.806;9.640;2023-01-31T07:55:25;4.80;77.60
71668;DHT22;59504;54.806;9.640;2023-01-31T07:57:44;4.80;78.00
71668;DHT22;59504;54.806;9.640;2023-01-31T08:00:04;4.90;78.90
71668;DHT22;59504;54.806;9.640;2023-01-31T08:02:43;4.90;78.30
71668;DHT22;59504;54.806;9.640;2023-01-31T08:05:21;4.90;78.20
71668;DHT22;59504;54.806;9.640;2023-01-31T08:07:40;4.90;78.40
71668;DHT22;59504;54.806;9.640;2023-01-31T08:10:00;5.00;78.50
71668;DHT22;59504;54.806;9.640;2023-01-31T08:12:19;4.90;78.50
71668;DHT22;59504;54.806;9.640;2023-01-31T08:14:38;5.00;78.40
71668;DHT22;59504;54.806;9.640;2023-01-31T08:16:57;5.00;78.50
71668;DHT22;59504;54.806;9.640;2023-01-31T08:19:17;5.00;78.90
71668;DHT22;59504;54.806;9.640;2023-01-31T08:21:36;5.00;79.20
71668;DHT22;59504;54.806;9.640;2023-01-31T08:23:55;5.00;79.20
71668;DHT22;59504;54.806;9.640;2023-01-31T08:26:16;5.00;79.20
71668;DHT22;59504;54.806;9.640;2023-01-31T08:28:37;5.00;79.30
71668;DHT22;59504;54.806;9.640;2023-01-31T08:30:56;5.10;79.50
71668;DHT22;59504;54.806;9.640;2023-01-31T08:33:16;5.00;79.20
71668;DHT22;59504;54.806;9.640;2023-01-31T08:35:35;5.10;79.20
71668;DHT22;59504;54.806;9.640;2023-01-31T08:37:54;5.10;79.20
71668;DHT22;59504;54.806;9.640;2023-01-31T08:40:14;5.10;79.20
71668;DHT22;59504;54.806;9.640;2023-01-31T08:42:33;5.10;79.20
71668;DHT22;59504;54.806;9.640;2023-01-31T08:44:52;5.10;79.20
71668;DHT22;59504;54.806;9.640;2023-01-31T08:47:11;5.10;79.20
71668;DHT22;59504;54.806;9.640;2023-01-31T08:49:30;5.10;79.30
71668;DHT22;59504;54.806;9.640;2023-01-31T08:51:51;5.10;79.60
71668;DHT22;59504;54.806;9.640;2023-01-31T08:54:10;5.10;79.40
71668;DHT22;59504;54.806;9.640;2023-01-31T08:56:31;5.20;79.50
71668;DHT22;59504;54.806;9.640;2023-01-31T08:58:50;5.20;79.50
71668;DHT22;59504;54.806;9.640;2023-01-31T09:01:15;5.20;79.80
71668;DHT22;59504;54.806;9.640;2023-01-31T09:03:36;5.20;79.50
71668;DHT22;59504;54.806;9.640;2023-01-31T09:05:59;5.20;79.80
71668;DHT22;59504;54.806;9.640;2023-01-31T09:08:18;5.20;80.00
71668;DHT22;59504;54.806;9.640;2023-01-31T09:10:38;5.20;79.80
71668;DHT22;59504;54.806;9.640;2023-01-31T09:12:58;5.30;80.00
71668;DHT22;59504;54.806;9.640;2023-01-31T09:15:18;5.30;80.20
71668;DHT22;59504;54.806;9.640;2023-01-31T09:17:38;5.30;80.40
71668;DHT22;59504;54.806;9.640;2023-01-31T09:19:57;5.30;80.20
71668;DHT22;59504;54.806;9.640;2023-01-31T09:22:16;5.30;80.40
71668;DHT22;59504;54.806;9.640;2023-01-31T09:24:37;5.30;81.10
71668;DHT22;59504;54.806;9.640;2023-01-31T09:26:38;5.50;80.50
71668;DHT22;59504;54.806;9.640;2023-01-31T09:28:59;5.40;80.60
71668;DHT22;59504;54.806;9.640;2023-01-31T09:31:20;5.30;81.00
71668;DHT22;59504;54.806;9.640;2023-01-31T09:33:41;5.40;81.60
71668;DHT22;59504;54.806;9.640;2023-01-31T09:35:42;5.40;80.80
71668;DHT22;59504;54.806;9.640;2023-01-31T09:38:03;5.40;80.90
71668;DHT22;59504;54.806;9.640;2023-01-31T09:40:25;5.40;81.00
71668;DHT22;59504;54.806;9.640;2023-01-31T09:42:50;5.50;81.20
71668;DHT22;59504;54.806;9.640;2023-01-31T09:45:34;5.50;81.30
71668;DHT22;59504;54.806;9.640;2023-01-31T09:47:57;5.50;81.30
71668;DHT22;59504;54.806;9.640;2023-01-31T09:50:20;5.50;81.50
71668;DHT22;59504;54.806;9.640;2023-01-31T09:52:41;5.50;81.50
71668;DHT22;59504;54.806;9.640;2023-01-31T09:55:02;5.60;81.60
71668;DHT22;59504;54.806;9.640;2023-01-31T10:00:12;5.60;81.70
71668;DHT22;59504;54.806;9.640;2023-01-31T10:05:38;5.70;81.90
71668;DHT22;59504;54.806;9.640;2023-01-31T10:11:01;5.70;81.90
71668;DHT22;59504;54.806;9.640;2023-01-31T10:13:33;5.70;81.70
71668;DHT22;59504;54.806;9.640;2023-01-31T10:18:39;5.80;81.70
71668;DHT22;59504;54.806;9.640;2023-01-31T10:21:09;5.80;81.90
71668;DHT22;59504;54.806;9.640;2023-01-31T10:23:41;5.80;82.10
71668;DHT22;59504;54.806;9.640;2023-01-31T10:26:26;5.80;82.00
71668;DHT22;59504;54.806;9.640;2023-01-31T10:28:53;5.90;81.90
71668;DHT22;59504;54.806;9.640;2023-01-31T10:36:59;5.90;82.30
71668;DHT22;59504;54.806;9.640;2023-01-31T10:39:31;6.00;82.30
71668;DHT22;59504;54.806;9.640;2023-01-31T10:44:52;6.00;82.50
71668;DHT22;59504;54.806;9.640;2023-01-31T10:47:15;6.00;82.60
71668;DHT22;59504;54.806;9.640;2023-01-31T10:49:36;6.00;82.70
71668;DHT22;59504;54.806;9.640;2023-01-31T10:52:03;6.00;82.80
71668;DHT22;59504;54.806;9.640;2023-01-31T10:57:27;6.10;82.90
71668;DHT22;59504;54.806;9.640;2023-01-31T10:59:48;6.10;82.70
71668;DHT22;59504;54.806;9.640;2023-01-31T11:02:25;6.10;82.80
71668;DHT22;59504;54.806;9.640;2023-01-31T11:04:47;6.20;83.20
71668;DHT22;59504;54.806;9.640;2023-01-31T11:07:09;6.10;83.20
71668;DHT22;59504;54.806;9.640;2023-01-31T11:09:36;6.10;83.50
71668;DHT22;59504;54.806;9.640;2023-01-31T11:11:59;6.10;83.70
71668;DHT22;59504;54.806;9.640;2023-01-31T11:14:19;6.10;83.60
71668;DHT22;59504;54.806;9.640;2023-01-31T11:16:39;6.10;84.00
71668;DHT22;59504;54.806;9.640;2023-01-31T11:19:01;6.20;84.20
71668;DHT22;59504;54.806;9.640;2023-01-31T11:21:31;6.20;84.30
71668;DHT22;59504;54.806;9.640;2023-01-31T11:24:03;6.20;84.40
71668;DHT22;59504;54.806;9.640;2023-01-31T11:26:35;6.20;84.40
71668;DHT22;59504;54.806;9.640;2023-01-31T11:28:55;6.20;84.60
71668;DHT22;59504;54.806;9.640;2023-01-31T11:31:28;6.30;84.60
71668;DHT22;59504;54.806;9.640;2023-01-31T11:34:02;6.30;84.80
71668;DHT22;59504;54.806;9.640;2023-01-31T11:36:21;6.40;85.00
71668;DHT22;59504;54.806;9.640;2023-01-31T11:38:42;6.30;85.00
71668;DHT22;59504;54.806;9.640;2023-01-31T11:41:25;6.40;85.00
71668;DHT22;59504;54.806;9.640;2023-01-31T11:43:45;6.40;85.10
71668;DHT22;59504;54.806;9.640;2023-01-31T11:46:06;6.50;85.00
71668;DHT22;59504;54.806;9.640;2023-01-31T11:48:31;6.50;84.80
71668;DHT22;59504;54.806;9.640;2023-01-31T11:51:00;6.50;84.80
71668;DHT22;59504;54.806;9.640;2023-01-31T11:53:24;6.50;84.70
71668;DHT22;59504;54.806;9.640;2023-01-31T11:55:44;6.50;84.90
71668;DHT22;59504;54.806;9.640;2023-01-31T11:58:24;6.60;84.90
71668;DHT22;59504;54.806;9.640;2023-01-31T12:00:56;6.60;84.60
71668;DHT22;59504;54.806;9.640;2023-01-31T12:03:17;6.60;84.60
71668;DHT22;59504;54.806;9.640;2023-01-31T12:05:41;6.60;84.50
71668;DHT22;59504;54.806;9.640;2023-01-31T12:08:01;6.60;84.50
71668;DHT22;59504;54.806;9.640;2023-01-31T12:10:31;6.80;84.50
71668;DHT22;59504;54.806;9.640;2023-01-31T12:12:51;6.60;84.20
71668;DHT22;59504;54.806;9.640;2023-01-31T12:15:14;6.60;84.10
71668;DHT22;59504;54.806;9.640;2023-01-31T12:17:36;6.70;84.10
71668;DHT22;59504;54.806;9.640;2023-01-31T12:22:50;6.70;84.00
71668;DHT22;59504;54.806;9.640;2023-01-31T12:25:28;6.70;84.00
71668;DHT22;59504;54.806;9.640;2023-01-31T12:33:44;6.70;83.50
71668;DHT22;59504;54.806;9.640;2023-01-31T12:38:52;6.80;83.10
71668;DHT22;59504;54.806;9.640;2023-01-31T12:44:25;6.80;82.70
71668;DHT22;59504;54.806;9.640;2023-01-31T12:49:25;6.80;82.40
71668;DHT22;59504;54.806;9.640;2023-01-31T12:58:45;6.90;81.60
71668;DHT22;59504;54.806;9.640;2023-01-31T13:01:14;6.80;81.40
71668;DHT22;59504;54.806;9.640;2023-01-31T13:05:52;7.00;81.20
71668;DHT22;59504;54.806;9.640;2023-01-31T13:08:22;7.10;81.10
71668;DHT22;59504;54.806;9.640;2023-01-31T13:10:46;7.00;81.00
71668;DHT22;59504;54.806;9.640;2023-01-31T13:13:18;7.00;81.60
71668;DHT22;59504;54.806;9.640;2023-01-31T13:15:54;7.10;80.80
71668;DHT22;59504;54.806;9.640;2023-01-31T13:18:16;7.00;80.50
71668;DHT22;59504;54.806;9.640;2023-01-31T13:22:58;7.10;80.40
71668;DHT22;59504;54.806;9.640;2023-01-31T13:25:22;7.20;80.30
71668;DHT22;59504;54.806;9.640;2023-01-31T13:27:56;7.20;80.10
71668;DHT22;59504;54.806;9.640;2023-01-31T13:30:37;7.20;79.90
71668;DHT22;59504;54.806;9.640;2023-01-31T13:33:07;7.10;79.60
71668;DHT22;59504;54.806;9.640;2023-01-31T13:35:37;7.20;79.40
71668;DHT22;59504;54.806;9.640;2023-01-31T13:38:03;7.40;79.20
71668;DHT22;59504;54.806;9.640;2023-01-31T13:40:35;7.20;78.80
71668;DHT22;59504;54.806;9.640;2023-01-31T13:43:01;7.20;78.50
71668;DHT22;59504;54.806;9.640;2023-01-31T13:45:27;7.20;78.50
71668;DHT22;59504;54.806;9.640;2023-01-31T13:48:03;7.30;78.40
71668;DHT22;59504;54.806;9.640;2023-01-31T13:50:37;7.20;78.20
71668;DHT22;59504;54.806;9.640;2023-01-31T13:52:59;7.20;78.30
71668;DHT22;59504;54.806;9.640;2023-01-31T13:55:37;7.20;78.00
71668;DHT22;59504;54.806;9.640;2023-01-31T13:58:07;7.20;77.90
71668;DHT22;59504;54.806;9.640;2023-01-31T14:05:54;7.00;77.30
71668;DHT22;59504;54.806;9.640;2023-01-31T14:10:55;7.10;77.60
71668;DHT22;59504;54.806;9.640;2023-01-31T14:16:01;7.10;77.50
71668;DHT22;59504;54.806;9.640;2023-01-31T14:18:44;7.00;77.30
71668;DHT22;59504;54.806;9.640;2023-01-31T14:22:17;7.00;77.20
71668;DHT22;59504;54.806;9.640;2023-01-31T14:29:40;7.10;77.20
71668;DHT22;59504;54.806;9.640;2023-01-31T14:32:15;7.00;76.50
71668;DHT22;59504;54.806;9.640;2023-01-31T14:34:38;7.00;76.60
71668;DHT22;59504;54.806;9.640;2023-01-31T14:40:03;7.00;76.30
71668;DHT22;59504;54.806;9.640;2023-01-31T14:42:43;7.00;76.00
71668;DHT22;59504;54.806;9.640;2023-01-31T14:45:17;6.90;75.80
71668;DHT22;59504;54.806;9.640;2023-01-31T14:50:39;6.90;75.80
71668;DHT22;59504;54.806;9.640;2023-01-31T14:58:30;6.90;74.90
71668;DHT22;59504;54.806;9.640;2023-01-31T15:00:36;6.90;74.80
71668;DHT22;59504;54.806;9.640;2023-01-31T15:04:59;6.80;74.90
71668;DHT22;59504;54.806;9.640;2023-01-31T15:07:00;6.80;75.00
71668;DHT22;59504;54.806;9.640;2023-01-31T15:09:26;6.70;71.30
71668;DHT22;59504;54.806;9.640;2023-01-31T15:11:38;6.50;69.10
71668;DHT22;59504;54.806;9.640;2023-01-31T15:13:41;6.40;68.60
71668;DHT22;59504;54.806;9.640;2023-01-31T15:15:46;6.20;68.00
71668;DHT22;59504;54.806;9.640;2023-01-31T15:17:50;6.00;68.20
71668;DHT22;59504;54.806;9.640;2023-01-31T15:22:16;5.60;69.50
71668;DHT22;59504;54.806;9.640;2023-01-31T15:24:50;5.40;70.00
71668;DHT22;59504;54.806;9.640;2023-01-31T15:26:53;5.20;71.00
71668;DHT22;59504;54.806;9.640;2023-01-31T15:28:55;5.10;71.50
71668;DHT22;59504;54.806;9.640;2023-01-31T15:30:59;4.80;71.80
71668;DHT22;59504;54.806;9.640;2023-01-31T15:33:06;4.60;72.70
71668;DHT22;59504;54.806;9.640;2023-01-31T15:35:26;4.50;74.20
71668;DHT22;59504;54.806;9.640;2023-01-31T15:37:31;4.50;74.40
71668;DHT22;59504;54.806;9.640;2023-01-31T15:39:39;4.40;74.60
71668;DHT22;59504;54.806;9.640;2023-01-31T15:41:42;4.30;75.30
71668;DHT22;59504;54.806;9.640;2023-01-31T15:43:47;4.30;75.80
71668;DHT22;59504;54.806;9.640;2023-01-31T15:45:48;4.20;75.80
71668;DHT22;59504;54.806;9.640;2023-01-31T15:48:07;4.20;76.30
71668;DHT22;59504;54.806;9.640;2023-01-31T15:50:18;4.10;76.70
71668;DHT22;59504;54.806;9.640;2023-01-31T15:52:20;4.10;77.00
71668;DHT22;59504;54.806;9.640;2023-01-31T15:54:21;4.10;77.20
71668;DHT22;59504;54.806;9.640;2023-01-31T15:56:24;4.00;77.10
71668;DHT22;59504;54.806;9.640;2023-01-31T15:58:27;4.00;77.10
71668;DHT22;59504;54.806;9.640;2023-01-31T16:00:34;4.00;77.00
71668;DHT22;59504;54.806;9.640;2023-01-31T16:02:35;4.10;76.80
71668;DHT22;59504;54.806;9.640;2023-01-31T16:04:38;4.00;76.60
71668;DHT22;59504;54.806;9.640;2023-01-31T16:06:39;4.00;76.40
71668;DHT22;59504;54.806;9.640;2023-01-31T16:08:40;4.00;76.20
71668;DHT22;59504;54.806;9.640;2023-01-31T16:10:42;4.20;76.20
71668;DHT22;59504;54.806;9.640;2023-01-31T16:12:46;4.00;76.20
71668;DHT22;59504;54.806;9.640;2023-01-31T16:14:48;4.10;76.20
71668;DHT22;59504;54.806;9.640;2023-01-31T16:16:52;4.10;76.10
71668;DHT22;59504;54.806;9.640;2023-01-31T16:18:54;4.10;76.00
71668;DHT22;59504;54.806;9.640;2023-01-31T16:20:56;4.10;75.70
71668;DHT22;59504;54.806;9.640;2023-01-31T16:22:57;4.10;75.50
71668;DHT22;59504;54.806;9.640;2023-01-31T16:25:00;4.10;75.70
71668;DHT22;59504;54.806;9.640;2023-01-31T16:27:06;4.10;75.60
71668;DHT22;59504;54.806;9.640;2023-01-31T16:29:12;4.10;75.20
71668;DHT22;59504;54.806;9.640;2023-01-31T16:31:18;4.10;75.30
71668;DHT22;59504;54.806;9.640;2023-01-31T16:33:22;4.00;75.30
71668;DHT22;59504;54.806;9.640;2023-01-31T16:35:25;4.00;75.40
71668;DHT22;59504;54.806;9.640;2023-01-31T16:37:41;4.00;75.10
71668;DHT22;59504;54.806;9.640;2023-01-31T16:39:48;4.00;75.10